createdAt,value
2022-12-08T00:01:09.529Z,-1.60
2022-12-08T00:03:37.103Z,-1.79
2022-12-08T00:06:24.276Z,-1.78
2022-12-08T00:09:09.859Z,-1.79
2022-12-08T00:11:37.257Z,-1.70
2022-12-08T00:14:03.971Z,-1.58
2022-12-08T00:16:30.611Z,-1.52
2022-12-08T00:18:57.260Z,-1.48
2022-12-08T00:21:23.866Z,-1.53
2022-12-08T00:23:50.489Z,-1.47
2022-12-08T00:26:17.131Z,-1.51
2022-12-08T00:28:43.868Z,-1.48
2022-12-08T00:31:12.147Z,-1.55
2022-12-08T00:33:39.303Z,-1.50
2022-12-08T00:36:11.230Z,-1.45
2022-12-08T00:38:38.883Z,-1.42
2022-12-08T00:41:17.182Z,-1.47
2022-12-08T00:43:44.174Z,-1.44
2022-12-08T00:46:12.110Z,-1.39
2022-12-08T00:48:39.064Z,-1.95
2022-12-08T00:51:05.951Z,-1.95
2022-12-08T00:53:32.675Z,-1.63
2022-12-08T00:55:59.351Z,-1.56
2022-12-08T00:58:25.959Z,-1.69
2022-12-08T01:00:52.696Z,-1.61
2022-12-08T01:03:19.472Z,-1.79
2022-12-08T01:05:46.229Z,-1.90
2022-12-08T01:08:12.997Z,-1.90
2022-12-08T01:10:39.805Z,-1.88
2022-12-08T01:13:06.561Z,-1.87
2022-12-08T01:15:33.204Z,-1.96
2022-12-08T01:17:59.870Z,-2.07
2022-12-08T01:20:26.629Z,-2.07
2022-12-08T01:22:53.235Z,-2.16
2022-12-08T01:25:19.913Z,-2.17
2022-12-08T01:27:46.490Z,-2.13
2022-12-08T01:30:13.661Z,-2.25
2022-12-08T01:32:40.234Z,-2.30
2022-12-08T01:35:07.088Z,-2.33
2022-12-08T01:37:33.751Z,-2.38
2022-12-08T01:40:00.344Z,-2.51
2022-12-08T01:42:27.074Z,-2.53
2022-12-08T01:44:57.451Z,-2.57
2022-12-08T01:47:28.072Z,-2.66
2022-12-08T01:49:54.969Z,-2.70
2022-12-08T01:52:37.652Z,-2.77
2022-12-08T01:55:11.630Z,-2.83
2022-12-08T01:57:44.606Z,-2.79
2022-12-08T02:00:14.794Z,-2.81
2022-12-08T02:03:01.889Z,-2.88
2022-12-08T02:05:34.674Z,-2.86
2022-12-08T02:08:06.169Z,-2.80
2022-12-08T02:10:36.541Z,-2.75
2022-12-08T02:13:05.702Z,-2.77
2022-12-08T02:15:37.276Z,-2.75
2022-12-08T02:18:14.614Z,-2.72
2022-12-08T02:20:44.273Z,-2.73
2022-12-08T02:23:31.682Z,-2.73
2022-12-08T02:26:26.162Z,-2.76
2022-12-08T02:28:58.600Z,-2.76
2022-12-08T02:31:54.197Z,-2.73
2022-12-08T02:34:58.821Z,-2.83
2022-12-08T02:37:32.051Z,-2.79
2022-12-08T02:40:25.089Z,-2.79
2022-12-08T02:43:07.398Z,-2.83
2022-12-08T02:45:41.314Z,-2.82
2022-12-08T02:48:09.121Z,-2.83
2022-12-08T02:50:35.814Z,-2.93
2022-12-08T02:56:17.143Z,-2.93
2022-12-08T02:58:55.568Z,-2.98
2022-12-08T03:01:25.062Z,-2.99
2022-12-08T03:04:26.974Z,-3.03
2022-12-08T03:07:04.158Z,-3.12
2022-12-08T03:09:42.605Z,-3.14
2022-12-08T03:12:26.097Z,-3.17
2022-12-08T03:14:55.231Z,-3.16
2022-12-08T03:17:26.111Z,-3.18
2022-12-08T03:19:54.513Z,-3.23
2022-12-08T03:22:24.062Z,-3.27
2022-12-08T03:24:51.646Z,-3.28
2022-12-08T03:27:22.626Z,-3.35
2022-12-08T03:29:52.015Z,-3.59
2022-12-08T03:32:36.497Z,-3.36
2022-12-08T03:35:13.528Z,-3.36
2022-12-08T03:37:41.024Z,-3.29
2022-12-08T03:40:11.998Z,-3.31
2022-12-08T03:42:38.610Z,-3.29
2022-12-08T03:45:06.082Z,-3.31
2022-12-08T03:47:32.779Z,-3.33
2022-12-08T03:49:59.395Z,-3.24
2022-12-08T03:52:25.982Z,-3.33
2022-12-08T03:54:52.695Z,-3.19
2022-12-08T03:57:19.341Z,-3.45
2022-12-08T03:59:45.975Z,-3.32
2022-12-08T04:02:12.698Z,-3.17
2022-12-08T04:04:39.386Z,-3.10
2022-12-08T04:07:06.038Z,-3.15
2022-12-08T04:09:32.673Z,-3.19
2022-12-08T04:11:59.274Z,-3.08
2022-12-08T04:14:26.026Z,-3.12
2022-12-08T04:16:52.747Z,-3.08
2022-12-08T04:19:19.768Z,-3.20
2022-12-08T04:21:46.352Z,-3.08
2022-12-08T04:24:12.979Z,-2.98
2022-12-08T04:26:39.581Z,-2.97
2022-12-08T04:29:06.299Z,-3.04
2022-12-08T04:31:32.988Z,-2.99
2022-12-08T04:33:59.646Z,-3.12
2022-12-08T04:36:26.380Z,-3.20
2022-12-08T04:38:53.238Z,-3.11
2022-12-08T04:41:20.074Z,-3.02
2022-12-08T04:43:46.719Z,-3.16
2022-12-08T04:46:13.472Z,-3.30
2022-12-08T04:48:41.038Z,-3.27
2022-12-08T04:51:15.003Z,-3.18
2022-12-08T04:53:46.285Z,-3.18
2022-12-08T04:56:15.757Z,-3.25
2022-12-08T04:58:42.988Z,-3.27
2022-12-08T05:01:09.824Z,-3.23
2022-12-08T05:03:37.120Z,-3.21
2022-12-08T05:06:04.482Z,-3.28
2022-12-08T05:08:31.355Z,-3.17
2022-12-08T05:11:07.004Z,-3.15
2022-12-08T05:13:33.633Z,-3.23
2022-12-08T05:16:05.178Z,-3.29
2022-12-08T05:18:31.922Z,-3.37
2022-12-08T05:20:58.807Z,-3.47
2022-12-08T05:23:26.172Z,-3.52
2022-12-08T05:25:52.905Z,-3.56
2022-12-08T05:28:40.706Z,-3.57
2022-12-08T05:31:06.226Z,-3.93
2022-12-08T05:33:32.895Z,-3.87
2022-12-08T05:35:59.589Z,-3.89
2022-12-08T05:38:26.237Z,-3.90
2022-12-08T05:40:52.845Z,-4.03
2022-12-08T05:43:19.458Z,-4.10
2022-12-08T05:45:46.227Z,-4.11
2022-12-08T05:48:12.938Z,-4.13
2022-12-08T05:50:40.100Z,-4.19
2022-12-08T05:53:06.679Z,-4.24
2022-12-08T05:55:33.333Z,-4.26
2022-12-08T05:58:03.132Z,-4.36
2022-12-08T06:00:34.921Z,-4.43
2022-12-08T06:03:01.803Z,-4.45
2022-12-08T06:05:28.624Z,-4.54
2022-12-08T06:07:55.315Z,-4.64
2022-12-08T06:10:21.916Z,-4.65
2022-12-08T06:12:48.617Z,-4.64
2022-12-08T06:15:15.362Z,-4.80
2022-12-08T06:17:42.020Z,-4.72
2022-12-08T06:20:09.322Z,-4.74
2022-12-08T06:22:36.666Z,-4.80
2022-12-08T06:25:07.222Z,-4.88
2022-12-08T06:27:36.346Z,-4.89
2022-12-08T06:30:03.517Z,-4.95
2022-12-08T06:32:30.520Z,-4.89
2022-12-08T06:34:57.198Z,-4.93
2022-12-08T06:37:23.819Z,-4.97
2022-12-08T06:39:50.629Z,-5.09
2022-12-08T06:42:35.557Z,-5.01
2022-12-08T06:45:02.189Z,-5.02
2022-12-08T06:47:28.910Z,-5.02
2022-12-08T06:49:55.520Z,-4.99
2022-12-08T06:52:22.116Z,-4.94
2022-12-08T06:54:48.743Z,-5.06
2022-12-08T06:57:15.389Z,-5.04
2022-12-08T06:59:42.020Z,-4.94
2022-12-08T07:02:09.715Z,-4.94
2022-12-08T07:04:36.477Z,-4.92
2022-12-08T07:07:03.289Z,-4.94
2022-12-08T07:09:30.094Z,-4.94
2022-12-08T07:11:56.863Z,-5.02
2022-12-08T07:14:24.917Z,-4.94
2022-12-08T07:16:52.263Z,-4.89
2022-12-08T07:19:19.234Z,-4.86
2022-12-08T07:21:46.019Z,-4.86
2022-12-08T07:24:13.022Z,-4.88
2022-12-08T07:26:39.947Z,-4.85
2022-12-08T07:29:07.117Z,-4.82
2022-12-08T07:31:33.812Z,-5.04
2022-12-08T07:34:00.478Z,-4.80
2022-12-08T07:36:27.340Z,-4.78
2022-12-08T07:38:54.316Z,-4.74
2022-12-08T07:41:24.451Z,-4.79
2022-12-08T07:43:53.493Z,-4.58
2022-12-08T07:46:22.709Z,-4.42
2022-12-08T07:48:49.577Z,-4.21
2022-12-08T07:51:17.169Z,-4.04
2022-12-08T07:53:50.041Z,-3.99
2022-12-08T07:56:20.394Z,-3.92
2022-12-08T07:58:47.069Z,-3.77
2022-12-08T08:01:28.976Z,-3.66
2022-12-08T08:03:57.562Z,-3.46
2022-12-08T08:06:24.321Z,-3.26
2022-12-08T08:08:51.064Z,-3.75
2022-12-08T08:11:21.189Z,-3.71
2022-12-08T08:13:49.009Z,-3.35
2022-12-08T08:16:16.098Z,-3.19
2022-12-08T08:18:43.568Z,-2.66
2022-12-08T08:21:43.322Z,-2.36
2022-12-08T08:23:56.952Z,-1.97
2022-12-08T08:26:23.605Z,-1.56
2022-12-08T08:28:50.278Z,-0.13
2022-12-08T08:31:17.017Z,1.38
2022-12-08T08:33:43.728Z,3.27
2022-12-08T08:36:10.908Z,1.62
2022-12-08T08:38:42.789Z,1.43
2022-12-08T08:41:10.719Z,0.23
2022-12-08T08:43:38.810Z,0.23
2022-12-08T08:46:06.988Z,-0.13
2022-12-08T08:48:33.834Z,-0.25
2022-12-08T08:51:10.510Z,-0.49
2022-12-08T08:53:38.228Z,-1.13
2022-12-08T08:56:15.196Z,-0.75
2022-12-08T08:58:42.194Z,-1.70
2022-12-08T09:01:08.914Z,-1.63
2022-12-08T09:03:35.628Z,-1.05
2022-12-08T09:06:02.343Z,-0.99
2022-12-08T09:08:29.064Z,-1.04
2022-12-08T09:10:55.740Z,-0.82
2022-12-08T09:13:22.442Z,-0.89
2022-12-08T09:15:49.399Z,-0.62
2022-12-08T09:18:16.205Z,-0.73
2022-12-08T09:20:42.842Z,-0.50
2022-12-08T09:23:09.562Z,-0.15
2022-12-08T09:25:36.538Z,0.19
2022-12-08T09:28:03.332Z,0.08
2022-12-08T09:30:29.952Z,0.46
2022-12-08T09:32:56.662Z,0.40
2022-12-08T09:35:23.356Z,0.49
2022-12-08T09:37:49.962Z,0.56
2022-12-08T09:40:20.261Z,0.75
2022-12-08T09:43:06.023Z,-0.16
2022-12-08T09:45:35.541Z,-0.34
2022-12-08T09:48:17.464Z,-0.18
2022-12-08T09:50:49.677Z,0.30
2022-12-08T09:53:22.752Z,0.54
2022-12-08T09:55:56.825Z,0.18
2022-12-08T09:59:15.291Z,0.69
2022-12-08T10:01:42.243Z,1.20
2022-12-08T10:04:26.391Z,1.34
2022-12-08T10:06:58.785Z,-0.38
2022-12-08T10:09:37.631Z,-0.21
2022-12-08T10:12:18.690Z,-0.57
2022-12-08T10:14:57.525Z,-0.98
2022-12-08T10:17:27.282Z,-0.05
2022-12-08T10:20:07.040Z,0.33
2022-12-08T10:22:38.704Z,0.32
2022-12-08T10:25:25.572Z,0.25
2022-12-08T10:27:54.523Z,-0.19
2022-12-08T10:30:22.360Z,-0.53
2022-12-08T10:32:51.345Z,-0.17
2022-12-08T10:35:20.179Z,-0.37
2022-12-08T10:38:01.232Z,-0.35
2022-12-08T10:40:36.873Z,-0.50
2022-12-08T10:43:07.004Z,-0.35
2022-12-08T10:45:41.811Z,0.41
2022-12-08T10:48:31.212Z,0.90
2022-12-08T10:50:59.175Z,0.57
2022-12-08T10:53:27.169Z,-0.30
2022-12-08T10:56:07.443Z,0.07
2022-12-08T10:58:46.185Z,0.36
2022-12-08T11:01:26.620Z,0.89
2022-12-08T11:04:00.195Z,0.29
2022-12-08T11:06:32.807Z,0.25
2022-12-08T11:09:02.570Z,-0.03
2022-12-08T11:11:45.789Z,-0.65
2022-12-08T11:14:45.811Z,-0.75
2022-12-08T11:17:16.538Z,-0.91
2022-12-08T11:19:55.708Z,-0.44
2022-12-08T11:22:25.626Z,-0.75
2022-12-08T11:25:07.335Z,-0.61
2022-12-08T11:27:36.682Z,-0.71
2022-12-08T11:30:18.676Z,-0.30
2022-12-08T11:32:52.951Z,-0.44
2022-12-08T11:35:30.742Z,-0.86
2022-12-08T11:38:21.207Z,-0.61
2022-12-08T11:40:53.288Z,-0.56
2022-12-08T11:43:35.992Z,-1.08
2022-12-08T11:46:15.147Z,-1.22
2022-12-08T11:48:51.454Z,-1.17
2022-12-08T11:51:57.511Z,-1.19
2022-12-08T11:54:30.575Z,-1.13
2022-12-08T11:57:08.586Z,-0.93
2022-12-08T11:59:41.716Z,-1.13
2022-12-08T12:02:15.147Z,-0.99
2022-12-08T12:05:04.671Z,-1.22
2022-12-08T12:07:58.850Z,-0.81
2022-12-08T12:10:48.213Z,-0.90
2022-12-08T12:13:17.514Z,-0.84
2022-12-08T12:16:02.980Z,-0.45
2022-12-08T12:18:29.576Z,-1.22
2022-12-08T12:21:04.955Z,-1.03
2022-12-08T12:23:40.577Z,-0.84
2022-12-08T12:26:16.478Z,-0.78
2022-12-08T12:28:53.188Z,-1.12
2022-12-08T12:31:25.910Z,-0.74
2022-12-08T12:33:56.960Z,-0.96
2022-12-08T12:36:25.423Z,-0.83
2022-12-08T12:39:06.287Z,-0.86
2022-12-08T12:41:41.748Z,-1.19
2022-12-08T12:44:14.128Z,-0.88
2022-12-08T12:46:54.177Z,-0.67
2022-12-08T12:49:39.209Z,-0.69
2022-12-08T12:52:25.741Z,-0.43
2022-12-08T12:54:52.899Z,-0.89
2022-12-08T12:57:19.487Z,-0.61
2022-12-08T13:00:05.564Z,-0.75
2022-12-08T13:02:46.118Z,-0.51
2022-12-08T13:05:19.997Z,-0.57
2022-12-08T13:08:00.761Z,-0.60
2022-12-08T13:10:33.770Z,-0.35
2022-12-08T13:13:12.648Z,-0.79
2022-12-08T13:15:47.006Z,-0.68
2022-12-08T13:18:36.437Z,-0.67
2022-12-08T13:21:09.138Z,-0.48
2022-12-08T13:23:38.920Z,-0.75
2022-12-08T13:26:08.565Z,0.01
2022-12-08T13:29:03.922Z,0.00
2022-12-08T13:31:48.315Z,0.53
2022-12-08T13:34:23.012Z,0.24
2022-12-08T13:36:57.106Z,-0.26
2022-12-08T13:39:42.063Z,-0.17
2022-12-08T13:42:27.479Z,-0.27
2022-12-08T13:45:33.577Z,-0.68
2022-12-08T13:48:55.909Z,-0.63
2022-12-08T13:53:34.177Z,-0.06
2022-12-08T13:57:16.521Z,0.54
2022-12-08T13:59:45.282Z,0.70
2022-12-08T14:02:17.328Z,0.76
2022-12-08T14:07:33.668Z,0.71
2022-12-08T14:10:03.600Z,0.67
2022-12-08T14:12:31.566Z,0.55
2022-12-08T14:15:03.710Z,0.61
2022-12-08T14:17:34.151Z,0.60
2022-12-08T14:20:19.729Z,0.19
2022-12-08T14:22:46.885Z,-0.44
2022-12-08T14:25:17.722Z,-0.06
2022-12-08T14:27:45.738Z,0.06
2022-12-08T14:30:13.433Z,-0.03
2022-12-08T14:32:52.595Z,-0.63
2022-12-08T14:35:26.945Z,-0.71
2022-12-08T14:37:59.795Z,-0.71
2022-12-08T14:40:36.199Z,-0.75
2022-12-08T14:43:05.829Z,-0.66
2022-12-08T14:45:34.962Z,-0.93
2022-12-08T14:48:38.637Z,-0.71
2022-12-08T14:51:13.782Z,-0.82
2022-12-08T14:54:02.976Z,-0.64
2022-12-08T14:56:51.742Z,-0.51
2022-12-08T14:59:39.070Z,-0.39
2022-12-08T15:02:26.532Z,-0.24
2022-12-08T15:05:22.712Z,-0.43
2022-12-08T15:07:55.654Z,-0.23
2022-12-08T15:10:29.475Z,-0.19
2022-12-08T15:12:57.526Z,-0.18
2022-12-08T15:15:24.447Z,-0.22
2022-12-08T15:17:58.225Z,-0.18
2022-12-08T15:20:35.414Z,-0.74
2022-12-08T15:23:02.888Z,-0.77
2022-12-08T15:25:29.618Z,-0.97
2022-12-08T15:27:58.828Z,-0.58
2022-12-08T15:30:29.742Z,-0.52
2022-12-08T15:32:56.549Z,-0.58
2022-12-08T15:35:23.275Z,-0.58
2022-12-08T15:37:50.030Z,-0.61
2022-12-08T15:40:21.294Z,-0.61
2022-12-08T15:42:48.794Z,-0.60
2022-12-08T15:45:16.790Z,-0.68
2022-12-08T15:47:45.125Z,-0.70
2022-12-08T15:50:16.649Z,-0.73
2022-12-08T15:52:43.588Z,-0.73
2022-12-08T15:55:15.146Z,-0.73
2022-12-08T15:58:38.273Z,-0.83
2022-12-08T16:00:52.511Z,-0.86
2022-12-08T16:09:23.675Z,-0.97
2022-12-08T16:12:10.306Z,-0.95
2022-12-08T16:17:25.669Z,-1.08
2022-12-08T16:19:52.347Z,-1.11
2022-12-08T16:22:54.148Z,-1.08
2022-12-08T16:25:19.479Z,-1.11
2022-12-08T16:28:23.069Z,-1.18
2022-12-08T16:30:35.944Z,-1.26
2022-12-08T16:33:02.712Z,-1.43
2022-12-08T16:35:29.612Z,-1.41
2022-12-08T16:37:56.256Z,-1.45
2022-12-08T16:40:23.065Z,-1.66
2022-12-08T16:42:50.402Z,-1.74
2022-12-08T16:45:26.122Z,-1.77
2022-12-08T16:47:56.372Z,-1.95
2022-12-08T16:50:28.629Z,-2.10
2022-12-08T16:53:21.799Z,-2.19
2022-12-08T16:55:49.629Z,-2.22
2022-12-08T16:58:18.406Z,-2.30
2022-12-08T17:00:45.615Z,-2.34
2022-12-08T17:03:14.853Z,-2.51
2022-12-08T17:05:41.672Z,-2.58
2022-12-08T17:08:08.375Z,-2.61
2022-12-08T17:10:39.356Z,-2.65
2022-12-08T17:13:06.034Z,-2.69
2022-12-08T17:15:32.763Z,-2.75
2022-12-08T17:17:59.346Z,-2.83
2022-12-08T17:20:28.027Z,-2.88
2022-12-08T17:22:56.678Z,-2.93
2022-12-08T17:25:24.090Z,-2.95
2022-12-08T17:27:51.210Z,-3.05
2022-12-08T17:30:19.015Z,-3.06
2022-12-08T17:32:45.739Z,-3.17
2022-12-08T17:35:13.299Z,-3.21
2022-12-08T17:37:40.521Z,-3.27
2022-12-08T17:40:08.311Z,-3.28
2022-12-08T17:42:35.171Z,-3.31
2022-12-08T17:45:01.799Z,-3.35
2022-12-08T17:47:28.533Z,-3.43
2022-12-08T17:49:56.151Z,-3.44
2022-12-08T17:52:22.838Z,-3.49
2022-12-08T17:54:49.547Z,-3.54
2022-12-08T17:57:16.179Z,-3.58
2022-12-08T17:59:42.873Z,-3.65
2022-12-08T18:02:10.968Z,-3.73
2022-12-08T18:04:37.743Z,-3.80
2022-12-08T18:07:04.497Z,-3.80
2022-12-08T18:09:31.663Z,-3.83
2022-12-08T18:11:58.353Z,-3.86
2022-12-08T18:14:26.012Z,-3.90
2022-12-08T18:16:52.744Z,-3.91
2022-12-08T18:19:19.505Z,-3.92
2022-12-08T18:21:46.201Z,-3.95
2022-12-08T18:24:19.196Z,-3.94
2022-12-08T18:26:46.613Z,-3.99
2022-12-08T18:29:13.371Z,-4.06
2022-12-08T18:31:40.185Z,-4.14
2022-12-08T18:34:06.898Z,-4.10
2022-12-08T18:36:33.653Z,-4.15
2022-12-08T18:39:01.633Z,-4.15
2022-12-08T18:41:31.307Z,-4.22
2022-12-08T18:43:58.088Z,-4.26
2022-12-08T18:46:25.366Z,-4.28
2022-12-08T18:48:52.696Z,-4.30
2022-12-08T18:51:24.413Z,-4.33
2022-12-08T18:53:51.982Z,-4.34
2022-12-08T18:56:27.854Z,-4.39
2022-12-08T18:59:03.617Z,-4.39
2022-12-08T19:01:35.927Z,-4.43
2022-12-08T19:04:27.502Z,-4.43
2022-12-08T19:06:52.571Z,-4.49
2022-12-08T19:09:19.594Z,-4.53
2022-12-08T19:11:46.383Z,-4.56
2022-12-08T19:14:13.106Z,-4.65
2022-12-08T19:16:39.863Z,-4.76
2022-12-08T19:19:06.546Z,-4.79
2022-12-08T19:21:33.491Z,-4.88
2022-12-08T19:24:00.341Z,-4.91
2022-12-08T19:26:28.131Z,-4.89
2022-12-08T19:28:55.104Z,-4.87
2022-12-08T19:31:21.920Z,-4.86
2022-12-08T19:33:48.755Z,-4.84
2022-12-08T19:36:18.319Z,-4.82
2022-12-08T19:39:03.558Z,-4.91
2022-12-08T19:41:49.003Z,-4.90
2022-12-08T19:44:52.296Z,-4.97
2022-12-08T19:47:20.919Z,-4.99
2022-12-08T19:49:47.701Z,-5.07
2022-12-08T19:52:14.430Z,-5.02
2022-12-08T19:54:41.114Z,-5.07
2022-12-08T19:57:07.761Z,-5.06
2022-12-08T19:59:34.388Z,-5.02
2022-12-08T20:02:01.238Z,-5.01
2022-12-08T20:04:28.020Z,-5.03
2022-12-08T20:06:56.608Z,-5.03
2022-12-08T20:09:24.606Z,-5.07
2022-12-08T20:11:54.576Z,-5.09
2022-12-08T20:14:22.952Z,-5.09
2022-12-08T20:16:50.381Z,-5.16
2022-12-08T20:19:17.744Z,-5.16
2022-12-08T20:21:44.577Z,-5.12
2022-12-08T20:24:11.343Z,-5.09
2022-12-08T20:26:38.084Z,-5.11
2022-12-08T20:29:04.767Z,-5.14
2022-12-08T20:31:32.557Z,-5.17
2022-12-08T20:33:59.616Z,-5.23
2022-12-08T20:36:26.361Z,-5.20
2022-12-08T20:38:54.609Z,-5.19
2022-12-08T20:41:23.468Z,-5.22
2022-12-08T20:43:51.139Z,-5.28
2022-12-08T20:46:18.964Z,-5.18
2022-12-08T20:48:45.783Z,-5.14
2022-12-08T20:51:18.099Z,-5.38
2022-12-08T20:53:45.372Z,-5.24
2022-12-08T20:56:22.012Z,-5.16
2022-12-08T20:58:49.600Z,-5.10
2022-12-08T21:01:19.087Z,-5.08
2022-12-08T21:03:46.741Z,-5.05
2022-12-08T21:06:14.667Z,-5.11
2022-12-08T21:08:42.300Z,-4.98
2022-12-08T21:11:10.021Z,-4.89
2022-12-08T21:13:38.203Z,-4.86
2022-12-08T21:16:05.652Z,-4.89
2022-12-08T21:18:38.869Z,-4.71
2022-12-08T21:21:08.900Z,-4.63
2022-12-08T21:23:35.965Z,-4.69
2022-12-08T21:26:03.834Z,-4.63
2022-12-08T21:28:30.698Z,-4.63
2022-12-08T21:30:57.454Z,-4.58
2022-12-08T21:33:24.307Z,-4.72
2022-12-08T21:35:51.646Z,-4.68
2022-12-08T21:38:18.514Z,-4.73
2022-12-08T21:40:45.440Z,-4.61
2022-12-08T21:43:13.644Z,-4.70
2022-12-08T21:45:40.571Z,-4.80
2022-12-08T21:48:11.730Z,-4.96
2022-12-08T21:50:39.032Z,-4.84
2022-12-08T21:53:05.866Z,-4.72
2022-12-08T21:55:32.602Z,-4.64
2022-12-08T21:58:00.972Z,-4.58
2022-12-08T22:00:28.097Z,-4.57
2022-12-08T22:02:55.114Z,-4.51
2022-12-08T22:05:22.008Z,-4.54
2022-12-08T22:07:48.927Z,-4.37
2022-12-08T22:10:15.759Z,-4.32
2022-12-08T22:12:42.618Z,-4.28
2022-12-08T22:15:11.075Z,-4.32
2022-12-08T22:17:43.322Z,-4.27
2022-12-08T22:20:13.024Z,-4.23
2022-12-08T22:22:40.564Z,-4.27
2022-12-08T22:25:11.923Z,-4.21
2022-12-08T22:27:39.657Z,-4.15
2022-12-08T22:30:07.486Z,-4.11
2022-12-08T22:32:37.709Z,-4.10
2022-12-08T22:35:04.677Z,-3.97
2022-12-08T22:37:31.291Z,-3.94
2022-12-08T22:39:58.103Z,-3.96
2022-12-08T22:42:25.007Z,-3.94
2022-12-08T22:44:51.603Z,-3.97
2022-12-08T22:47:18.318Z,-4.07
2022-12-08T22:49:45.208Z,-4.07
2022-12-08T22:52:11.904Z,-4.12
2022-12-08T22:54:38.504Z,-4.04
2022-12-08T22:57:05.233Z,-4.02
2022-12-08T22:59:33.342Z,-4.03
2022-12-08T23:02:00.321Z,-3.96
2022-12-08T23:04:27.410Z,-3.89
2022-12-08T23:06:54.223Z,-3.90
2022-12-08T23:09:21.579Z,-3.97
2022-12-08T23:11:48.423Z,-3.91
2022-12-08T23:14:15.226Z,-3.94
2022-12-08T23:16:42.104Z,-3.90
2022-12-08T23:19:08.831Z,-3.97
2022-12-08T23:21:35.766Z,-4.06
2022-12-08T23:24:03.077Z,-4.10
2022-12-08T23:26:32.527Z,-4.26
2022-12-08T23:28:59.689Z,-4.20
2022-12-08T23:31:27.553Z,-4.40
2022-12-08T23:33:54.940Z,-4.41
2022-12-08T23:36:26.259Z,-4.77
2022-12-08T23:38:54.308Z,-4.64
2022-12-08T23:41:21.060Z,-4.78
2022-12-08T23:43:50.070Z,-4.72
2022-12-08T23:46:19.462Z,-4.69
2022-12-08T23:48:46.515Z,-4.83
2022-12-08T23:51:14.158Z,-4.65
2022-12-08T23:53:41.575Z,-4.70
2022-12-08T23:56:12.124Z,-4.77
2022-12-08T23:58:39.301Z,-4.63
